Capitol Logistics 948

Operating for DHL



EGSS
London Stansted Airport
London, GB
EGNX
East Midlands Airport
Derby, GB

Activity Log

Date Flight Route Aircraft Duration
01/10/2022 CPX999 UTAV1R UTAVA HEME1E B738 0h 48m

Route Details

Aircraft Information
Group: European Fleet
Types: A30F,A31F,B738
Route Data
Demand: L
Distance: 81nm
Duration: 0h 55m
Recm'd Route: UTAV1R UTAVA HEME1E
Origin Wx: EGSS 270550Z AUTO 30008KT 260V340 9999 FEW013 12/09 Q1023
Dest. Wx: EGNX 270550Z 27010KT CAVOK 10/04 Q1023
Notes:

Financial History
Total Freight: 13,200lbs
Average Load: 13,200lbs/flt
Fuel Used: 3,747lbs
Avg. Fuel Used: 3,747lbs/flt
Fuel Expense: $1,049
Avg. Fuel Expense: $1,049
Avg. Fuel Cost: $0.28/lbs
Total Gross Income: $27,245
Pilot Pay: $79
Total Expenses: $4,603
Total Revenue: $21,555
Average Revenue: $27,244.80